Tiempo atmosférico en la estación meteorológica de Agaete, Las Palmas (5 m.)

Fecha
DESCASC
Temp. máxima en grados centígrados (hora)
DESCASC
Temp. mínima en grados centígrados (hora)
DESCASC
Temp. media en grados centígrados
DESCASC
Racha de viento máxima en m/sg (hora)
DESCASC
Velocidad máxima media en intervalos de 10 minutos(hora)
DESCASC
Precipitaciones diarias en mm
DESCASC
Precipitaciones de 00:00 a 06:00 en mm
DESCASC
Precipitaciones de 06:00 a 12:00 en mm
DESCASC
Precipitaciones de 12:00 a 18:00 en mm
DESCASC
Precipitaciones de 18:00 a 24:00 en mm
DESCASC
21-08-2017 31.4 (18:30) 22.2 (07:40) 26.8 14.44 (00:10) 10.83 (16:50) 0 0 0 0 0
20-08-2017 29.6 (18:10) 23.2 (01:30) 26.4 20 (08:20) 11.11 (08:20) 0 0 0 0 0
19-08-2017 27.3 (14:40) 22.8 (07:20) 25 18.06 (16:10) 10.28 (14:50) 0 0 0 0 0
18-08-2017 31.6 (14:20) 23.9 (23:50) 27.8 15 (16:40) 10.28 (16:50) 0 0 0 0 0
17-08-2017 31.6 (17:30) 22.9 (00:00) 27.3 13.61 (18:10) 8.61 (18:00) 0 0 0 0 0
16-08-2017 27 (12:20) 21.6 (00:00) 24.3 17.78 (18:10) 9.44 (18:00) 0 0 0 0 0
15-08-2017 27.4 (17:10) 21.2 (00:00) 24.3 13.33 (22:00) 7.78 (14:40) 0 0 0 0 0
14-08-2017 24.5 (17:20) 21.2 (05:30) 22.9 12.5 (17:10) 8.06 (15:10) 0 0 0 0 0
13-08-2017 24.9 (15:50) 21.6 (00:00) 23.3 13.33 (16:10) 9.17 (14:40) 0 0 0 0 0
12-08-2017 28.9 (16:50) 22.2 (00:00) 25.6 15.56 (01:20) 10.83 (18:10) 0 0 0 0 0
11-08-2017 28.6 (12:50) 22.1 (00:00) 25.4 16.67 (22:10) 10 (08:20) 0 0 0 0 0
10-08-2017 31.1 (15:20) 22.7 (00:00) 26.9 18.33 (16:30) 11.11 (09:00) 0 0 0 0 0
09-08-2017 30.3 (16:40) 22.9 (00:00) 26.6 20.56 (20:30) 12.78 (20:30) 0 0 0 0 0
08-08-2017 29.9 (13:10) 23.2 (00:00) 26.6 14.44 (16:10) 9.17 (16:00) 0 0 0 0 0
07-08-2017 25.7 (14:30) 23 (00:00) 24.4 12.5 (14:10) 9.44 (14:00) 0 0 0 0 0
06-08-2017 26.2 (13:00) 22.7 (00:00) 24.5 14.44 (15:10) 9.17 (16:40) 0 0 0 0 0
05-08-2017 25.8 (16:20) 23.2 (00:00) 24.5 14.72 (14:10) 8.61 (16:10) 0 0 0 0 0
04-08-2017 25.1 (17:00) 21.9 (00:00) 23.5 13.89 (15:10) 8.61 (17:30) 0 0 0 0 0
03-08-2017 25.5 (16:00) 21.5 (00:00) 23.5 11.94 (14:40) 7.5 (13:50) 0 0 0 0 0
02-08-2017 26 (15:40) 21.9 (00:00) 23.9 14.44 (15:10) 8.89 (14:50) 0 0 0 0 0
01-08-2017 27 (17:30) 21.8 (00:00) 24.4 14.17 (14:10) 7.5 (13:50) 0 0 0 0 0
31-07-2017 25.4 (15:20) 21.6 (00:00) 23.5 13.61 (17:10) 9.72 (16:40) 0 0 0 0 0
30-07-2017 25.5 (13:40) 21.8 (00:00) 23.6 13.89 (19:10) 9.17 (15:20) 0 0 0 0 0
29-07-2017 28.9 (16:30) 23.5 (00:00) 26.2 11.39 (18:40) 6.94 (18:40) 0 0 0 0 0
28-07-2017 33.5 (06:30) 23.7 (00:00) 28.6 14.44 (04:10) 8.33 (01:40) 0.2 0 0.2 0 0
27-07-2017 27.8 (14:00) 21.8 (00:00) 24.8 13.61 (11:50) 8.89 (11:50) 0 0 0 0 0
26-07-2017 26 (13:00) 21.6 (00:00) 23.8 21.11 (03:10) 10.83 (03:20) 0 0 0 0 0
25-07-2017 26.5 (16:00) 21.8 (00:00) 24.1 16.67 (16:10) 10.28 (23:50) 0 0 0 0 0
24-07-2017 24.9 (14:10) 21.6 (00:00) 23.3 15.83 (16:10) 10.56 (14:30) 0 0 0 0 0
23-07-2017 25.3 (16:30) 21.4 (00:00) 23.3 15 (15:20) 9.17 (15:10) 0 0 0 0 0

Gráficas

Temp. máximas Temp. mínimas Temp. medias Precipitaciones Rachas de viento máximas Velocidades máximas media en intervalos de 10 minutos

Datos horarios

Fecha y hora oficial Temperatura (ºC) Velocidad del viento (km/h) Dirección del viento Racha (km/h) Dirección de racha Precipitación (mm) Presión (hPa) Tendencia (hPa) Humedad (%)
2017-08-21 23:00:00 24.5 13 Sur 31 Sudeste 0 -- -- 73
2017-08-21 22:00:00 25.3 13 Sur 29 Sudeste 0 -- -- 68
2017-08-21 21:00:00 25.9 8 Oeste 19 Sudeste 0 -- -- 63
2017-08-21 20:00:00 27.1 9 Sur 21 Sudoeste 0 -- -- 63
2017-08-21 19:00:00 28.6 12 Este 46 Nordeste 0 -- -- 42
2017-08-21 18:00:00 28.7 23 Norte 45 Norte 0 -- -- 44
2017-08-21 17:00:00 26.2 38 Norte 48 Norte 0 -- -- 69
2017-08-21 16:00:00 27.8 29 Norte 42 Norte 0 -- -- 61
2017-08-21 15:00:00 27.4 22 Norte 40 Norte 0 -- -- 63
2017-08-21 14:00:00 25.4 27 Norte 40 Norte 0 -- -- 75
2017-08-21 13:00:00 24.4 32 Norte 41 Nordeste 0 -- -- 79
2017-08-21 12:00:00 24.8 19 Norte 32 Norte 0 -- -- 77
2017-08-21 11:00:00 23.9 20 Norte 28 Norte 0 -- -- 81
2017-08-21 10:00:00 24.2 8 Nordeste 20 Sur 0 -- -- 79
2017-08-21 09:00:00 23.6 12 Sudeste 24 Nordeste 0 -- -- 77
2017-08-21 08:00:00 22.6 13 Nordeste 19 Nordeste 0 -- -- 82
2017-08-21 07:00:00 22.5 9 Sur 25 Sur 0 -- -- 87
2017-08-21 06:00:00 23.3 20 Sur 43 Sudoeste 0 -- -- 81
2017-08-21 05:00:00 23.5 8 Este 21 Sudeste 0 -- -- 74
2017-08-21 04:00:00 23.9 6 Este 30 Este 0 -- -- 72
2017-08-21 03:00:00 23.7 12 Nordeste 31 Este 0 -- -- 73
2017-08-21 02:00:00 23.9 7 Sur 22 Noroeste 0 -- -- 72
2017-08-21 01:00:00 24.1 9 Nordeste 52 Norte 0 -- -- 71
2017-08-21 00:00:00 23.7 27 Nordeste 47 Nordeste 0 -- -- 76
2017-08-20 23:00:00 24 10 Sudeste 27 Nordeste 0 -- -- 75
2017-08-20 22:00:00 23.8 17 Nordeste 38 Norte 0 -- -- 74
2017-08-20 21:00:00 24 15 Nordeste 46 Norte 0 -- -- 74
2017-08-20 20:00:00 24.2 27 Norte 55 Norte 0 -- -- 76
2017-08-20 19:00:00 25.7 25 Norte 48 Norte 0 -- -- 68
2017-08-20 18:00:00 29.3 15 Este 50 Nordeste 0 -- -- 52
2017-08-20 17:00:00 28.8 18 Este 38 Sudeste 0 -- -- 53
2017-08-20 16:00:00 28.5 15 Este 48 Nordeste 0 -- -- 56
2017-08-20 15:00:00 28.4 26 Nordeste 48 Norte 0 -- -- 56
2017-08-20 14:00:00 27.6 25 Nordeste 56 Nordeste 0 -- -- 60
2017-08-20 13:00:00 28.3 26 Nordeste 55 Nordeste 0 -- -- 55
2017-08-20 12:00:00 28.8 31 Nordeste 63 Nordeste 0 -- -- 49
2017-08-20 11:00:00 26.5 25 Nordeste 64 Nordeste 0 -- -- 60
2017-08-20 10:00:00 26.5 38 Nordeste 63 Nordeste 0 -- -- 54
2017-08-20 09:00:00 26.4 35 Nordeste 72 Nordeste 0 -- -- 50
2017-08-20 08:00:00 26.2 26 Nordeste 55 Nordeste 0 -- -- 51
2017-08-20 07:00:00 26.3 30 Nordeste 55 Nordeste 0 -- -- 51
2017-08-20 06:00:00 25.4 33 Nordeste 59 Nordeste 0 -- -- 55
2017-08-20 05:00:00 24.9 33 Nordeste 60 Nordeste 0 -- -- 59
2017-08-20 04:00:00 24.8 29 Nordeste 63 Nordeste 0 -- -- 61
2017-08-20 03:00:00 24.1 32 Nordeste 66 Nordeste 0 -- -- 66
2017-08-20 02:00:00 23.9 34 Nordeste 55 Nordeste 0 -- -- 65
2017-08-20 01:00:00 23.8 29 Nordeste 50 Nordeste 0 -- -- 71
2017-08-20 00:00:00 24.1 29 Nordeste 55 Nordeste 0 -- -- 69
2017-08-19 23:00:00 23.6 30 Nordeste 59 Nordeste 0 -- -- 74
2017-08-19 22:00:00 24.4 26 Nordeste 55 Nordeste 0 -- -- 69
2017-08-19 21:00:00 24.2 31 Nordeste 57 Nordeste 0 -- -- 71
2017-08-19 20:00:00 25 30 Nordeste 60 Nordeste 0 -- -- 68
2017-08-19 19:00:00 26 24 Norte 53 Norte 0 -- -- 65
2017-08-19 18:00:00 26.5 32 Norte 57 Nordeste 0 -- -- 64
2017-08-19 17:00:00 26.7 32 Norte 65 Nordeste 0 -- -- 63
2017-08-19 16:00:00 27.3 34 Nordeste 56 Norte 0 -- -- 61
2017-08-19 15:00:00 26.7 36 Nordeste 57 Nordeste 0 -- -- 62
2017-08-19 14:00:00 26.7 34 Nordeste 55 Nordeste 0 -- -- 64
2017-08-19 13:00:00 26.5 30 Nordeste 61 Norte 0 -- -- 63
2017-08-19 12:00:00 25.7 33 Norte 56 Norte 0 -- -- 67
2017-08-19 11:00:00 24.9 36 Norte 62 Norte 0 -- -- 68
2017-08-19 10:00:00 24.5 33 Norte 61 Nordeste 0 -- -- 68
2017-08-19 09:00:00 23.6 29 Norte 48 Nordeste 0 -- -- 74
2017-08-19 08:00:00 23.1 30 Norte 56 Nordeste 0 -- -- 75
2017-08-19 07:00:00 22.9 28 Norte 48 Nordeste 0 -- -- 76
2017-08-19 06:00:00 23.2 26 Nordeste 43 Nordeste 0 -- -- 72
2017-08-19 05:00:00 23.7 27 Norte 38 Nordeste 0 -- -- 67
2017-08-19 04:00:00 26.3 26 Nordeste 45 Nordeste 0 -- -- 42
2017-08-19 03:00:00 24.3 27 Nordeste 54 Nordeste 0 -- -- 60
2017-08-19 02:00:00 25.1 24 Norte 46 Nordeste 0 -- -- 56
2017-08-19 01:00:00 25.1 23 Nordeste 49 Norte 0 -- -- 54
2017-08-19 00:00:00 24 34 Norte 51 Norte 0 -- -- 70
2017-08-18 23:00:00 24.6 31 Norte 47 Nordeste 0 -- -- 65
2017-08-18 22:00:00 26.3 22 Norte 45 Norte 0 -- -- 49
2017-08-18 21:00:00 25.7 27 Norte 45 Norte 0 -- -- 56
2017-08-18 20:00:00 26.4 28 Norte 44 Norte 0 -- -- 58
2017-08-18 19:00:00 27.1 29 Norte 48 Norte 0 -- -- 56
2017-08-18 18:00:00 27.3 30 Norte 53 Norte 0 -- -- 58
2017-08-18 17:00:00 27 36 Norte 54 Norte 0 -- -- 59
2017-08-18 16:00:00 29.6 25 Norte 42 Norte 0 -- -- 48
2017-08-18 15:00:00 31.3 22 Norte 45 Nordeste 0 -- -- 38
2017-08-18 14:00:00 31.3 24 Nordeste 44 Nordeste 0 -- -- 38
2017-08-18 13:00:00 30.2 24 Norte 43 Norte 0 -- -- 43
2017-08-18 12:00:00 28.6 27 Norte 40 Norte 0 -- -- 52
2017-08-18 11:00:00 29.2 19 Norte 39 Norte 0 -- -- 47
2017-08-18 10:00:00 28.6 18 Norte 36 Nordeste 0 -- -- 47
2017-08-18 09:00:00 29.1 20 Nordeste 43 Nordeste 0 -- -- 37
2017-08-18 08:00:00 27.2 23 Nordeste 47 Norte 0 -- -- 42
2017-08-18 07:00:00 24.3 36 Norte 46 Nordeste 0 -- -- 67
2017-08-18 06:00:00 28.4 29 Nordeste 42 Nordeste 0 -- -- 38
2017-08-18 05:00:00 29 24 Nordeste 42 Nordeste 0 -- -- 34
2017-08-18 04:00:00 28.3 27 Nordeste 40 Nordeste 0 -- -- 37
2017-08-18 03:00:00 29 21 Nordeste 38 Nordeste 0 -- -- 32
2017-08-18 02:00:00 28.5 19 Nordeste 36 Nordeste 0 -- -- 32
2017-08-18 01:00:00 29.5 19 Nordeste 48 Nordeste 0 -- -- 26
2017-08-18 00:00:00 28.1 25 Norte 37 Norte 0 -- -- 32
2017-08-17 23:00:00 29.2 20 Norte 38 Norte 0 -- -- 26
2017-08-17 22:00:00 26.2 24 Norte 43 Norte 0 -- -- 48
2017-08-17 21:00:00 26.4 26 Norte 41 Norte 0 -- -- 54
2017-08-17 20:00:00 26.2 28 Norte 43 Nordeste 0 -- -- 62
2017-08-17 19:00:00 28.3 30 Nordeste 49 Nordeste 0 -- -- 53
2017-08-17 18:00:00 29.3 31 Nordeste 46 Nordeste 0 -- -- 51
2017-08-17 17:00:00 30 9 Sudeste 36 Nordeste 0 -- -- 49
2017-08-17 16:00:00 29.4 10 Sudeste 36 Noroeste 0 -- -- 54
2017-08-17 15:00:00 28 11 Sur 23 Sur 0 -- -- 62
2017-08-17 14:00:00 27 17 Sur 28 Sudoeste 0 -- -- 67
2017-08-17 13:00:00 27.2 19 Sudoeste 30 Sudoeste 0 -- -- 66
2017-08-17 12:00:00 27.2 10 Sur 17 Sur 0 -- -- 64
2017-08-17 11:00:00 26 12 Sudoeste 22 Oeste 0 -- -- 66
2017-08-17 10:00:00 25.6 17 Sudoeste 24 Sudoeste 0 -- -- 64
2017-08-17 09:00:00 25.6 10 Sur 20 Sudoeste 0 -- -- 60
2017-08-17 08:00:00 24.9 10 Sudoeste 48 Este 0 -- -- 66
2017-08-17 07:00:00 25.1 14 Este 42 Nordeste 0 -- -- 60
2017-08-17 06:00:00 24.2 13 Nordeste 47 Este 0 -- -- 66
2017-08-17 05:00:00 22.9 4 Sur 17 Sur 0 -- -- 77
2017-08-17 04:00:00 23 10 Sudeste 37 Nordeste 0 -- -- 77
2017-08-17 03:00:00 23.4 16 Sudoeste 27 Sur 0 -- -- 75
2017-08-17 02:00:00 23.2 9 Norte 32 Este 0 -- -- 77
2017-08-17 01:00:00 23.5 11 Nordeste -- -- -- -- -- 76
2017-08-17 00:00:00 23.6 15 Nordeste 40 Nordeste 0 -- -- 74
2017-08-16 23:00:00 23.5 15 Norte 32 Nordeste 0 -- -- 75
2017-08-16 22:00:00 23.5 17 Norte 38 Norte 0 -- -- 77
2017-08-16 21:00:00 23.4 26 Norte 41 Norte 0 -- -- 76
2017-08-16 20:00:00 24.5 19 Norte 41 Norte 0 -- -- 72
2017-08-16 19:00:00 25.4 27 Norte 64 Norte 0 -- -- 69
2017-08-16 18:00:00 25.7 34 Norte 51 Norte 0 -- -- 67
2017-08-16 17:00:00 26.4 28 Norte 50 Norte 0 -- -- 63
2017-08-16 16:00:00 26.8 23 Norte 45 Nordeste 0 -- -- 62
2017-08-16 15:00:00 26.8 24 Norte 47 Norte 0 -- -- 62
2017-08-16 14:00:00 25.9 26 Norte 48 Norte 0 -- -- 66
2017-08-16 13:00:00 26.5 19 Norte 39 Norte 0 -- -- 62
2017-08-16 12:00:00 26.4 17 Nordeste 37 Nordeste 0 -- -- 63
2017-08-16 11:00:00 24.6 10 Este 20 Este 0 -- -- 73
2017-08-16 10:00:00 25 6 Sudoeste 13 Sudoeste 0 -- -- 71
2017-08-16 09:00:00 24.2 2 Este 10 Sudeste 0 -- -- 72
2017-08-16 08:00:00 22.2 5 Noroeste 25 Nordeste 0 -- -- 78
2017-08-16 07:00:00 22 4 Sudeste 18 Norte 0 -- -- 77
2017-08-16 06:00:00 22.3 8 Sudeste 28 Sudeste 0 -- -- 77
2017-08-16 05:00:00 22.5 9 Sudeste 33 Este 0 -- -- 74
2017-08-16 04:00:00 22.6 4 Sudeste 30 Este 0 -- -- 74
2017-08-16 03:00:00 22.7 11 Nordeste 29 Este 0 -- -- 75
2017-08-16 02:00:00 22.8 12 Nordeste 33 Este 0 -- -- 77
2017-08-16 01:00:00 22.9 13 Nordeste 30 Nordeste 0 -- -- 75
2017-08-16 00:00:00 23 14 Nordeste 32 Nordeste 0 -- -- 75
2017-08-15 23:00:00 23.1 19 Nordeste 38 Nordeste 0 -- -- 73
2017-08-15 22:00:00 23.2 26 Nordeste 48 Nordeste 0 -- -- 73
2017-08-15 21:00:00 23.5 21 Nordeste 42 Nordeste 0 -- -- 74
2017-08-15 20:00:00 24.2 24 Nordeste 45 Nordeste 0 -- -- 71
2017-08-15 19:00:00 25.4 21 Nordeste 37 Nordeste 0 -- -- 67
2017-08-15 18:00:00 26.4 18 Nordeste 32 Nordeste 0 -- -- 63
2017-08-15 17:00:00 27 13 Nordeste 32 Norte 0 -- -- 62
2017-08-15 16:00:00 26.4 12 Norte 41 Norte 0 -- -- 65
2017-08-15 15:00:00 25.7 20 Norte 36 Norte 0 -- -- 68
2017-08-15 14:00:00 25.5 23 Norte 34 Norte 0 -- -- 67
2017-08-15 13:00:00 24.7 28 Norte 36 Norte 0 -- -- 70
2017-08-15 12:00:00 25.8 13 Norte 29 Norte 0 -- -- 63
2017-08-15 11:00:00 25.4 11 Nordeste 22 Nordeste 0 -- -- 63
2017-08-15 10:00:00 24.6 11 Nordeste 20 Nordeste 0 -- -- 63
2017-08-15 09:00:00 23 9 Nordeste 24 Nordeste 0 -- -- 69
2017-08-15 08:00:00 21.4 8 Nordeste 17 Nordeste 0 -- -- 76
2017-08-15 07:00:00 21.3 7 Nordeste 17 Nordeste 0 -- -- 75
2017-08-15 06:00:00 21.4 10 Nordeste 20 Nordeste 0 -- -- 75
2017-08-15 05:00:00 21.8 10 Nordeste 21 Nordeste 0 -- -- 76
2017-08-15 04:00:00 22 8 Nordeste 24 Nordeste 0 -- -- 76
2017-08-15 03:00:00 22.1 11 Nordeste 27 Nordeste 0 -- -- 76
2017-08-15 02:00:00 22.4 12 Nordeste 24 Nordeste 0 -- -- 73
2017-08-15 01:00:00 22.4 12 Nordeste 19 Nordeste 0 -- -- 73
2017-08-15 00:00:00 22.5 12 Norte 19 Norte 0 -- -- 77
2017-08-14 23:00:00 23.1 9 Nordeste 21 Nordeste 0 -- -- 68
2017-08-14 22:00:00 23 13 Nordeste 24 Norte 0 -- -- 72
2017-08-14 21:00:00 23.3 10 Nordeste 29 Norte 0 -- -- 74
2017-08-14 20:00:00 23.8 17 Norte 33 Norte 0 -- -- 74
2017-08-14 19:00:00 23.9 24 Norte 34 Norte 0 -- -- 74
2017-08-14 18:00:00 24.1 28 Norte 45 Norte 0 -- -- 74
2017-08-14 17:00:00 24 29 Norte 36 Norte 0 -- -- 74
2017-08-14 16:00:00 24.3 28 Norte 42 Norte 0 -- -- 73
2017-08-14 15:00:00 24.3 28 Norte 32 Norte 0 -- -- 72
2017-08-14 14:00:00 24.3 25 Norte 29 Norte 0 -- -- 73
2017-08-14 13:00:00 23.8 22 Norte 26 Norte 0 -- -- 75
2017-08-14 12:00:00 23.8 19 Norte 24 Norte 0 -- -- 75
2017-08-14 11:00:00 23.5 19 Norte 22 Norte 0 -- -- 74
2017-08-14 10:00:00 23 16 Norte 19 Norte 0 -- -- 75
2017-08-14 09:00:00 22.9 6 Nordeste 15 Nordeste 0 -- -- 72
2017-08-14 08:00:00 21.3 5 Este 16 Nordeste 0 -- -- 76
2017-08-14 07:00:00 21.5 8 Nordeste 15 Norte 0 -- -- 77
2017-08-14 06:00:00 21.4 9 Nordeste 14 Nordeste 0 -- -- 78
2017-08-14 05:00:00 21.4 8 Nordeste 19 Este 0 -- -- 78
2017-08-14 04:00:00 21.6 8 Nordeste 19 Nordeste 0 -- -- 78
2017-08-14 03:00:00 21.6 10 Nordeste 18 Nordeste 0 -- -- 80
2017-08-14 02:00:00 21.6 6 Nordeste 18 Nordeste 0 -- -- 80
2017-08-14 01:00:00 21.8 9 Nordeste 19 Nordeste 0 -- -- 79
2017-08-14 00:00:00 22.1 7 Nordeste 20 Nordeste 0 -- -- 79
2017-08-13 23:00:00 22.4 12 Nordeste 19 Norte 0 -- -- 77
2017-08-13 22:00:00 22.6 11 Norte 25 Norte 0 -- -- 79
2017-08-13 21:00:00 22.9 14 Norte 32 Norte 0 -- -- 79
2017-08-13 20:00:00 23.4 23 Norte 37 Norte 0 -- -- 78
2017-08-13 19:00:00 24.1 27 Norte 42 Norte 0 -- -- 74
2017-08-13 18:00:00 24.7 27 Norte 40 Norte 0 -- -- 71
2017-08-13 17:00:00 24.4 31 Norte 48 Norte 0 -- -- 73
2017-08-13 16:00:00 24.6 30 Norte 48 Norte 0 -- -- 72
2017-08-13 15:00:00 24.2 30 Norte 39 Norte 0 -- -- 72
2017-08-13 14:00:00 24.6 30 Norte 37 Norte 0 -- -- 71
2017-08-13 13:00:00 24.1 28 Norte 44 Norte 0 -- -- 73
2017-08-13 12:00:00 23.4 31 Norte 40 Norte 0 -- -- 77
2017-08-13 11:00:00 23.3 27 Norte 35 Norte 0 -- -- 76
2017-08-13 10:00:00 23.1 19 Norte 28 Norte 0 -- -- 76
2017-08-13 09:00:00 23 10 Norte 19 Norte 0 -- -- 75
2017-08-13 08:00:00 21.6 7 Norte 21 Nordeste 0 -- -- 75
2017-08-13 07:00:00 22 6 Oeste 32 Norte 0 -- -- 65
2017-08-13 06:00:00 22.4 17 Nordeste 32 Nordeste 0 -- -- 67
2017-08-13 05:00:00 21.8 6 Sudeste 25 Nordeste 0 -- -- 74
2017-08-13 04:00:00 21.8 14 Nordeste 37 Nordeste 0 -- -- 81
2017-08-13 03:00:00 22.1 19 Norte 32 Nordeste 0 -- -- 81
2017-08-13 02:00:00 22.7 21 Nordeste 34 Norte 0 -- -- 75
2017-08-13 01:00:00 23.1 19 Nordeste 33 Norte 0 -- -- 72
2017-08-13 00:00:00 23.8 21 Norte 36 Nordeste 0 -- -- 68
2017-08-12 23:00:00 24.5 19 Norte 33 Norte 0 -- -- 59
2017-08-12 22:00:00 23.2 23 Nordeste 38 Norte 0 -- -- 77
2017-08-12 21:00:00 23.1 24 Norte 44 Norte 0 -- -- 80
2017-08-12 20:00:00 24.5 27 Norte 45 Norte 0 -- -- 74
2017-08-12 19:00:00 25.2 32 Norte 52 Norte 0 -- -- 71
2017-08-12 18:00:00 25.3 39 Norte 49 Norte 0 -- -- 70
2017-08-12 17:00:00 27.8 27 Norte 43 Norte 0 -- -- 58
2017-08-12 16:00:00 27.7 25 Norte 46 Norte 0 -- -- 55
2017-08-12 15:00:00 28.2 27 Norte 44 Norte 0 -- -- 51
2017-08-12 14:00:00 28.1 22 Nordeste 43 Norte 0 -- -- 52
2017-08-12 13:00:00 27.3 28 Nordeste 47 Nordeste 0 -- -- 56
2017-08-12 12:00:00 27 27 Nordeste 44 Nordeste 0 -- -- 57
2017-08-12 11:00:00 27 22 Nordeste 36 Nordeste 0 -- -- 53
2017-08-12 10:00:00 25.8 23 Nordeste 45 Nordeste 0 -- -- 56
2017-08-12 09:00:00 24.5 19 Nordeste 44 Nordeste 0 -- -- 59
2017-08-12 08:00:00 22.2 27 Nordeste 40 Nordeste 0 -- -- 72
2017-08-12 07:00:00 23.2 25 Nordeste 38 Nordeste 0 -- -- 60
2017-08-12 06:00:00 23.5 23 Nordeste 41 Nordeste 0 -- -- 59
2017-08-12 05:00:00 25.3 23 Nordeste 38 Nordeste 0 -- -- 43
2017-08-12 04:00:00 24.9 22 Nordeste 42 Nordeste 0 -- -- 43
2017-08-12 03:00:00 24.8 22 Norte 41 Norte 0 -- -- 50
2017-08-12 02:00:00 24.4 28 Norte 56 Nordeste 0 -- -- 57
2017-08-12 01:00:00 22.8 32 Norte 51 Norte 0 -- -- 74
2017-08-12 00:00:00 23 34 Norte 51 Norte 0 -- -- 73
2017-08-11 23:00:00 23.6 32 Norte 60 Norte 0 -- -- 67
2017-08-11 22:00:00 23.2 33 Norte 46 Norte 0 -- -- 70
2017-08-11 21:00:00 24.4 32 Norte 58 Norte 0 -- -- 54
2017-08-11 20:00:00 25.6 32 Nordeste 58 Norte 0 -- -- 43
2017-08-11 19:00:00 27 30 Nordeste 52 Nordeste 0 -- -- 38
2017-08-11 18:00:00 26.5 32 Norte 55 Norte 0 -- -- 50
2017-08-11 17:00:00 27.6 32 Norte 59 Nordeste 0 -- -- 47
2017-08-11 16:00:00 28.3 31 Nordeste 56 Nordeste 0 -- -- 49
2017-08-11 15:00:00 27.8 33 Norte 53 Nordeste 0 -- -- 50
2017-08-11 14:00:00 28 32 Norte 53 Nordeste 0 -- -- 47
2017-08-11 13:00:00 28.6 27 Nordeste 57 Nordeste 0 -- -- 40
2017-08-11 12:00:00 27.9 31 Nordeste 53 Nordeste 0 -- -- 38
2017-08-11 11:00:00 27.5 29 Norte 49 Nordeste 0 -- -- 39
2017-08-11 10:00:00 26.7 28 Norte 52 Norte 0 -- -- 36
2017-08-11 09:00:00 25.3 27 Norte 51 Norte 0 -- -- 38
2017-08-11 08:00:00 22.7 29 Norte 45 Norte 0 -- -- 65
2017-08-11 07:00:00 22.5 23 Norte 43 Norte 0 -- -- 68
2017-08-11 06:00:00 22.6 24 Nordeste 51 Norte 0 -- -- 67
2017-08-11 05:00:00 22.2 31 Norte 54 Norte 0 -- -- 72
2017-08-11 04:00:00 22.2 32 Norte 49 Norte 0 -- -- 73
2017-08-11 03:00:00 22.5 28 Norte 46 Nordeste 0 -- -- 67
2017-08-11 02:00:00 22.5 27 Norte 49 Nordeste 0 -- -- 68
2017-08-11 01:00:00 22.3 28 Norte 49 Norte 0 -- -- 73
2017-08-11 00:00:00 22.7 30 Norte 62 Norte 0 -- -- 72
2017-08-10 23:00:00 22.8 38 Norte 54 Norte 0 -- -- 69
2017-08-10 22:00:00 23.5 26 Norte 46 Norte 0 -- -- 63
2017-08-10 21:00:00 24.5 26 Norte 58 Nordeste 0 -- -- 53
2017-08-10 20:00:00 24.7 26 Norte 55 Nordeste 0 -- -- 60
2017-08-10 19:00:00 25.3 34 Norte 65 Nordeste 0 -- -- 63
2017-08-10 18:00:00 26.3 30 Norte 58 Nordeste 0 -- -- 61
2017-08-10 17:00:00 26.6 31 Nordeste 66 Nordeste 0 -- -- 60
2017-08-10 16:00:00 28.7 30 Nordeste 54 Nordeste 0 -- -- 50
2017-08-10 15:00:00 30.7 28 Nordeste 58 Nordeste 0 -- -- 42
2017-08-10 14:00:00 29.1 34 Nordeste 61 Nordeste 0 -- -- 48
2017-08-10 13:00:00 29.4 33 Nordeste 60 Nordeste 0 -- -- 46
2017-08-10 12:00:00 27.8 33 Nordeste 60 Nordeste 0 -- -- 53
2017-08-10 11:00:00 26.7 36 Nordeste 57 Nordeste 0 -- -- 59
2017-08-10 10:00:00 25.8 35 Nordeste 57 Este 0 -- -- 58
2017-08-10 09:00:00 24.5 40 Nordeste 63 Nordeste 0 -- -- 65
2017-08-10 08:00:00 25.9 27 Nordeste 54 Nordeste 0 -- -- 50
2017-08-10 07:00:00 26.4 26 Nordeste 50 Nordeste 0 -- -- 48
2017-08-10 06:00:00 26.7 24 Nordeste 43 Nordeste 0 -- -- 43
2017-08-10 05:00:00 29.9 28 Nordeste 51 Nordeste 0 -- -- 22
2017-08-10 04:00:00 29 26 Nordeste 50 Norte 0 -- -- 27
2017-08-10 03:00:00 29.9 25 Nordeste 49 Nordeste 0 -- -- 20
2017-08-10 02:00:00 30.5 24 Nordeste 52 Nordeste 0 -- -- 16
2017-08-10 01:00:00 29.4 23 Norte 50 Nordeste 0 -- -- 22
2017-08-10 00:00:00 29.4 30 Nordeste 58 Nordeste 0 -- -- 22
2017-08-09 23:00:00 28.3 33 Nordeste 60 Nordeste 0 -- -- 27
2017-08-09 22:00:00 28.1 34 Nordeste 67 Nordeste 0 -- -- 30
2017-08-09 21:00:00 27.5 44 Nordeste 74 Nordeste 0 -- -- 35
2017-08-09 20:00:00 27.6 44 Nordeste 69 Nordeste 0 -- -- 40
2017-08-09 19:00:00 27.5 35 Nordeste 68 Este 0 -- -- 52
2017-08-09 18:00:00 27.8 17 Sudeste 42 Sudeste 0 -- -- 59
2017-08-09 17:00:00 28.7 20 Norte 44 Nordeste 0 -- -- 57
2017-08-09 16:00:00 29.2 17 Norte 53 Este 0 -- -- 56
2017-08-09 15:00:00 28.6 20 Este 53 Este 0 -- -- 59
2017-08-09 14:00:00 29.7 14 Este 36 Nordeste 0 -- -- 55
2017-08-09 13:00:00 28.8 20 Nordeste 48 Nordeste 0 -- -- 57
2017-08-09 12:00:00 28.1 19 Nordeste 42 Nordeste 0 -- -- 57
2017-08-09 11:00:00 27.4 15 Nordeste 43 Nordeste 0 -- -- 59
2017-08-09 10:00:00 26.9 17 Nordeste 44 Nordeste 0 -- -- 56
2017-08-09 09:00:00 24.7 17 Este 42 Este 0 -- -- 68
2017-08-09 08:00:00 23.6 16 Nordeste 32 Este 0 -- -- 74
2017-08-09 07:00:00 23.2 6 Nordeste 25 Nordeste 0 -- -- 79
2017-08-09 06:00:00 23.6 11 Sur 36 Sudeste 0 -- -- 75
2017-08-09 05:00:00 23.9 18 Sur 37 Sudeste 0 -- -- 74
2017-08-09 04:00:00 24.2 12 Sudoeste 42 Sudeste 0 -- -- 74
2017-08-09 03:00:00 24.2 18 Sudeste 39 Sudeste 0 -- -- 73
2017-08-09 02:00:00 24.7 16 Este 41 Este 0 -- -- 72
2017-08-09 01:00:00 24.3 8 Este 28 Nordeste 0 -- -- 75
2017-08-09 00:00:00 24.3 15 Nordeste 39 Nordeste 0 -- -- 76
2017-08-08 23:00:00 24 22 Nordeste 44 Nordeste 0 -- -- 80
2017-08-08 22:00:00 24.1 20 Nordeste 35 Norte 0 -- -- 80
2017-08-08 21:00:00 24.4 13 Nordeste 30 Nordeste 0 -- -- 79
2017-08-08 20:00:00 25 13 Nordeste 29 Norte 0 -- -- 78
2017-08-08 19:00:00 25.9 15 Nordeste 31 Nordeste 0 -- -- 75
2017-08-08 18:00:00 25.8 23 Norte 34 Norte 0 -- -- 76
2017-08-08 17:00:00 26.6 21 Norte 52 Norte 0 -- -- 72
2017-08-08 16:00:00 25.3 33 Norte 41 Norte 0 -- -- 77
2017-08-08 15:00:00 27.7 9 Sudeste 13 Sudeste 0 -- -- 68
2017-08-08 14:00:00 29.2 10 Sudeste 35 Sudeste 0 -- -- 61
2017-08-08 13:00:00 28.9 12 Nordeste 29 Este 0 -- -- 62
2017-08-08 12:00:00 27.7 11 Nordeste 28 Nordeste 0 -- -- 67
2017-08-08 11:00:00 27.2 8 Noroeste 27 Nordeste 0 -- -- 69
2017-08-08 10:00:00 25 11 Sudoeste 15 Sudoeste 0 -- -- 77
2017-08-08 09:00:00 24.2 6 Sudeste 32 Este -- -- -- 81
2017-08-08 08:00:00 23.2 13 Nordeste 30 Este 0 -- -- 87
2017-08-08 07:00:00 23.3 5 Nordeste 24 Nordeste 0 -- -- 87
2017-08-08 06:00:00 23.3 10 Este 21 Este 0 -- -- 87
2017-08-08 05:00:00 23.4 6 Nordeste 23 Este 0 -- -- 87
2017-08-08 04:00:00 23.6 8 Este 24 Este 0 -- -- 85
2017-08-08 03:00:00 23.9 6 Sudoeste 18 Oeste 0 -- -- 83
2017-08-08 02:00:00 23.7 12 Norte 30 Norte 0 -- -- 86
2017-08-08 01:00:00 23.7 13 Norte 24 Norte 0 -- -- 87
2017-08-08 00:00:00 23.9 12 Norte 26 Nordeste 0 -- -- 86
2017-08-07 23:00:00 24 11 Norte 26 Norte 0 -- -- 85
2017-08-07 22:00:00 24 17 Norte 27 Norte 0 -- -- 86
2017-08-07 21:00:00 24.1 15 Norte 29 Norte 0 -- -- 86
2017-08-07 20:00:00 24.2 17 Norte 30 Norte 0 -- -- 85
2017-08-07 19:00:00 24.6 19 Norte 36 Norte 0 -- -- 84
2017-08-07 18:00:00 24.6 24 Norte 44 Norte 0 -- -- 84
2017-08-07 17:00:00 24.6 30 Norte 40 Norte 0 -- -- 84
2017-08-07 16:00:00 24.7 32 Norte 40 Norte 0 -- -- 84
2017-08-07 15:00:00 25 27 Norte 45 Norte 0 -- -- 82
2017-08-07 14:00:00 24.6 34 Norte 42 Norte 0 -- -- 83
2017-08-07 13:00:00 25.1 21 Norte 36 Nordeste 0 -- -- 80
2017-08-07 12:00:00 24.9 18 Norte 30 Nordeste 0 -- -- 80
2017-08-07 11:00:00 24.5 16 Norte 30 Norte 0 -- -- 81
2017-08-07 10:00:00 23.9 16 Norte 27 Norte 0 -- -- 84
2017-08-07 09:00:00 23.4 12 Nordeste 28 Norte 0 -- -- 86
2017-08-07 08:00:00 23.1 10 Norte 26 Nordeste 0 -- -- 87
2017-08-07 07:00:00 23 13 Norte 21 Norte 0 -- -- 87
2017-08-07 06:00:00 23.1 4 Nordeste 26 Nordeste 0 -- -- 85
2017-08-07 05:00:00 23.1 8 Nordeste 24 Este 0 -- -- 86
2017-08-07 04:00:00 23.2 8 Norte 31 Norte 0 -- -- 85
2017-08-07 03:00:00 23.6 9 Nordeste 23 Norte 0 -- -- 82
2017-08-07 02:00:00 23.5 13 Norte 34 Norte 0 -- -- 82
2017-08-07 01:00:00 23.4 18 Norte 32 Nordeste 0 -- -- 83
2017-08-07 00:00:00 23.5 15 Nordeste 29 Nordeste 0 -- -- 82
2017-08-06 23:00:00 23.5 15 Nordeste 26 Norte 0 -- -- 82
2017-08-06 22:00:00 23.6 15 Nordeste 28 Norte 0 -- -- 82
2017-08-06 21:00:00 23.7 18 Norte 31 Norte 0 -- -- 82
2017-08-06 20:00:00 24 18 Norte 35 Norte 0 -- -- 79
2017-08-06 19:00:00 24.9 22 Norte 40 Norte 0 -- -- 75
2017-08-06 18:00:00 25.6 22 Nordeste 42 Norte 0 -- -- 74
2017-08-06 17:00:00 25.4 28 Norte 47 Norte 0 -- -- 76
2017-08-06 16:00:00 24.6 29 Norte 52 Norte 0 -- -- 78
2017-08-06 15:00:00 24.7 29 Norte 40 Norte 0 -- -- 77
2017-08-06 14:00:00 25.2 27 Norte 43 Norte 0 -- -- 74
2017-08-06 13:00:00 26.2 19 Norte 37 Nordeste 0 -- -- 68
2017-08-06 12:00:00 25.5 20 Norte 43 Norte 0 -- -- 69
2017-08-06 11:00:00 24.3 18 Norte 28 Nordeste 0 -- -- 76
2017-08-06 10:00:00 23.8 13 Norte 25 Norte 0 -- -- 76
2017-08-06 09:00:00 23.2 14 Nordeste 24 Nordeste 0 -- -- 77
2017-08-06 08:00:00 22.9 13 Nordeste 30 Nordeste 0 -- -- 78
2017-08-06 07:00:00 22.7 10 Nordeste 26 Nordeste 0 -- -- 79
2017-08-06 06:00:00 22.7 13 Nordeste 28 Nordeste 0 -- -- 79
2017-08-06 05:00:00 22.8 14 Nordeste 25 Nordeste 0 -- -- 81
2017-08-06 04:00:00 23.2 14 Nordeste 28 Nordeste 0 -- -- 78
2017-08-06 03:00:00 23.4 17 Nordeste 34 Nordeste 0 -- -- 75
2017-08-06 02:00:00 23.4 19 Nordeste 32 Nordeste 0 -- -- 79
2017-08-06 01:00:00 23.6 20 Nordeste 32 Norte 0 -- -- 73
2017-08-06 00:00:00 23.7 15 Nordeste 30 Este 0 -- -- 78
2017-08-05 23:00:00 23.9 15 Nordeste 31 Nordeste 0 -- -- 77
2017-08-05 22:00:00 24 18 Nordeste 32 Nordeste 0 -- -- 72
2017-08-05 21:00:00 24.2 18 Nordeste 33 Norte 0 -- -- 73
2017-08-05 20:00:00 24.4 17 Nordeste 33 Norte 0 -- -- 73
2017-08-05 19:00:00 25.3 22 Norte 35 Nordeste 0 -- -- 69
2017-08-05 18:00:00 25.7 21 Norte 43 Nordeste 0 -- -- 67
2017-08-05 17:00:00 25.8 24 Norte 40 Norte 0 -- -- 67
2017-08-05 16:00:00 25 31 Norte 41 Norte 0 -- -- 72
2017-08-05 15:00:00 25.3 28 Norte 53 Norte 0 -- -- 67
2017-08-05 14:00:00 25.5 24 Norte 41 Norte 0 -- -- 67
2017-08-05 13:00:00 25.1 25 Norte 44 Norte 0 -- -- 67
2017-08-05 12:00:00 24.7 24 Norte 39 Norte 0 -- -- 71
2017-08-05 11:00:00 24.6 26 Norte 36 Norte 0 -- -- 67
2017-08-05 10:00:00 24.7 15 Nordeste 35 Norte 0 -- -- 66
2017-08-05 09:00:00 23.6 14 Nordeste 29 Nordeste 0 -- -- 72
2017-08-05 08:00:00 23.3 14 Nordeste 38 Este 0 -- -- 70
2017-08-05 07:00:00 23.3 12 Nordeste 27 Nordeste 0 -- -- 69
2017-08-05 06:00:00 23.3 17 Nordeste 32 Nordeste 0 -- -- 73
2017-08-05 05:00:00 23.4 16 Nordeste 30 Nordeste 0 -- -- 69
2017-08-05 04:00:00 23.4 15 Nordeste 26 Nordeste 0 -- -- 71
2017-08-05 03:00:00 23.4 13 Nordeste 32 Nordeste 0 -- -- 71
2017-08-05 02:00:00 23.3 15 Nordeste 36 Nordeste 0 -- -- 74
2017-08-05 01:00:00 23.4 15 Nordeste 28 Nordeste 0 -- -- 77
2017-08-05 00:00:00 23.4 14 Nordeste 28 Nordeste 0 -- -- 72
2017-08-04 23:00:00 23.7 14 Nordeste 28 Nordeste 0 -- -- 71
2017-08-04 22:00:00 23.6 17 Nordeste 27 Nordeste 0 -- -- 71
2017-08-04 21:00:00 23.7 19 Nordeste 31 Nordeste 0 -- -- 71
2017-08-04 20:00:00 24.6 16 Nordeste 35 Norte 0 -- -- 69
2017-08-04 19:00:00 24.6 23 Norte 39 Norte 0 -- -- 69
2017-08-04 18:00:00 24.6 25 Norte 40 Norte 0 -- -- 71
2017-08-04 17:00:00 25.1 24 Norte 42 Norte 0 -- -- 66
2017-08-04 16:00:00 24.4 27 Norte 50 Norte 0 -- -- 71
2017-08-04 15:00:00 24.4 26 Norte 36 Norte 0 -- -- 71
2017-08-04 14:00:00 24.5 28 Norte 46 Norte 0 -- -- 68
2017-08-04 13:00:00 24.7 25 Norte 40 Norte 0 -- -- 67
2017-08-04 12:00:00 24.8 23 Norte 38 Norte 0 -- -- 66
2017-08-04 11:00:00 25 16 Nordeste 28 Nordeste 0 -- -- 63
2017-08-04 10:00:00 23.8 16 Nordeste 28 Nordeste 0 -- -- 68
2017-08-04 09:00:00 22.6 13 Nordeste 24 Nordeste 0 -- -- 74
2017-08-04 08:00:00 22.1 14 Nordeste 27 Nordeste 0 -- -- 79
2017-08-04 07:00:00 22.4 15 Nordeste 24 Nordeste 0 -- -- 75
2017-08-04 06:00:00 22 13 Nordeste 27 Nordeste 0 -- -- 75
2017-08-04 05:00:00 22.5 14 Nordeste 31 Norte 0 -- -- 75
2017-08-04 04:00:00 22.3 14 Nordeste 27 Norte 0 -- -- 79
2017-08-04 03:00:00 22.3 15 Nordeste 25 Nordeste 0 -- -- 78
2017-08-04 02:00:00 22.5 13 Nordeste 24 Nordeste 0 -- -- 74
2017-08-04 01:00:00 22.5 17 Nordeste 32 Nordeste 0 -- -- 77
2017-08-04 00:00:00 23.1 19 Nordeste 28 Nordeste 0 -- -- 70
2017-08-03 23:00:00 22.9 17 Nordeste 38 Este 0 -- -- 75
2017-08-03 22:00:00 23.2 15 Nordeste 33 Nordeste 0 -- -- 69
2017-08-03 21:00:00 23.1 20 Nordeste 42 Nordeste 0 -- -- 72
2017-08-03 20:00:00 23.9 23 Nordeste 41 Este 0 -- -- 64
2017-08-03 19:00:00 24 23 Nordeste 37 Nordeste 0 -- -- 67
2017-08-03 18:00:00 25 21 Nordeste 41 Nordeste 0 -- -- 60
2017-08-03 17:00:00 25 22 Nordeste 39 Norte 0 -- -- 61
2017-08-03 16:00:00 25.5 23 Nordeste 41 Norte 0 -- -- 58
2017-08-03 15:00:00 25.4 22 Nordeste 43 Norte 0 -- -- 56
2017-08-03 14:00:00 24.7 26 Norte 42 Norte 0 -- -- 59
2017-08-03 13:00:00 24.4 26 Norte 42 Norte 0 -- -- 60
2017-08-03 12:00:00 23.5 20 Nordeste 35 Norte 0 -- -- 66
2017-08-03 11:00:00 23.1 19 Nordeste 35 Nordeste 0 -- -- 65
2017-08-03 10:00:00 22.8 18 Nordeste 32 Nordeste 0 -- -- 64
2017-08-03 09:00:00 22.6 18 Nordeste 32 Norte 0 -- -- 66
2017-08-03 08:00:00 22 15 Nordeste 29 Nordeste 0 -- -- 71
2017-08-03 07:00:00 21.6 18 Nordeste 37 Nordeste 0 -- -- 73
2017-08-03 06:00:00 22 18 Nordeste 32 Nordeste 0 -- -- 75
2017-08-03 05:00:00 22 18 Nordeste 33 Nordeste 0 -- -- 75
2017-08-03 04:00:00 22.4 16 Nordeste 31 Este 0 -- -- 74
2017-08-03 03:00:00 22.1 18 Nordeste 35 Nordeste 0 -- -- 76
2017-08-03 02:00:00 22.6 21 Nordeste 38 Este 0 -- -- 74
2017-08-03 01:00:00 22.8 15 Nordeste 37 Nordeste 0 -- -- 68
2017-08-03 00:00:00 22.8 22 Nordeste 39 Nordeste 0 -- -- 71
2017-08-02 23:00:00 22.8 22 Nordeste 38 Nordeste 0 -- -- 75
2017-08-02 22:00:00 22.9 21 Nordeste 39 Nordeste 0 -- -- 73
2017-08-02 21:00:00 23.1 23 Nordeste 40 Nordeste 0 -- -- 72
2017-08-02 20:00:00 24 23 Nordeste 39 Nordeste 0 -- -- 69
2017-08-02 19:00:00 25.1 27 Nordeste 45 Nordeste 0 -- -- 63
2017-08-02 18:00:00 25.3 28 Nordeste 49 Nordeste 0 -- -- 60
2017-08-02 17:00:00 26 22 Nordeste 49 Nordeste 0 -- -- 59
2017-08-02 16:00:00 25.6 28 Norte 52 Norte 0 -- -- 62
2017-08-02 15:00:00 25.7 32 Norte 51 Norte 0 -- -- 60
2017-08-02 14:00:00 25.6 26 Norte 48 Norte 0 -- -- 61
2017-08-02 13:00:00 25.1 29 Norte 45 Norte 0 -- -- 64
2017-08-02 12:00:00 24.4 30 Norte 46 Nordeste 0 -- -- 66
2017-08-02 11:00:00 24 28 Norte 44 Norte 0 -- -- 65
2017-08-02 10:00:00 23.5 30 Norte 44 Norte 0 -- -- 68
2017-08-02 09:00:00 23.3 19 Nordeste 33 Nordeste 0 -- -- 65
2017-08-02 08:00:00 22.1 17 Nordeste 30 Nordeste 0 -- -- 70
2017-08-02 07:00:00 21.9 19 Nordeste 30 Nordeste 0 -- -- 74
2017-08-02 06:00:00 22 19 Nordeste 36 Nordeste 0 -- -- 74
2017-08-02 05:00:00 22.1 17 Nordeste 34 Nordeste 0 -- -- 78
2017-08-02 04:00:00 22.3 17 Nordeste 29 Nordeste 0 -- -- 80
2017-08-02 03:00:00 22.6 15 Nordeste 33 Nordeste 0 -- -- 78
2017-08-02 02:00:00 23.1 17 Nordeste 35 Este 0 -- -- 71
2017-08-02 01:00:00 23 17 Nordeste 32 Nordeste 0 -- -- 70
2017-08-02 00:00:00 23.5 19 Nordeste 36 Nordeste 0 -- -- 68
2017-08-01 23:00:00 23.9 15 Nordeste 32 Nordeste 0 -- -- 64
2017-08-01 22:00:00 24.1 17 Nordeste 32 Este 0 -- -- 62
2017-08-01 21:00:00 24.3 20 Nordeste 37 Nordeste 0 -- -- 61
2017-08-01 20:00:00 25.2 23 Nordeste 37 Nordeste 0 -- -- 59
2017-08-01 19:00:00 26.2 20 Nordeste 40 Nordeste 0 -- -- 53
2017-08-01 18:00:00 26.4 22 Nordeste 36 Nordeste 0 -- -- 51
2017-08-01 17:00:00 26.6 22 Norte 46 Norte 0 -- -- 50
2017-08-01 16:00:00 26.8 22 Norte 49 Norte 0 -- -- 51
2017-08-01 15:00:00 25.9 26 Nordeste 51 Nordeste 0 -- -- 59
2017-08-01 14:00:00 25.5 26 Nordeste 43 Nordeste 0 -- -- 59
2017-08-01 13:00:00 25.4 25 Nordeste 42 Nordeste 0 -- -- 61
2017-08-01 12:00:00 25 23 Nordeste 37 Nordeste 0 -- -- 64
2017-08-01 11:00:00 25.3 20 Nordeste 39 Nordeste 0 -- -- 60
2017-08-01 10:00:00 23.7 23 Nordeste 44 Nordeste 0 -- -- 68
2017-08-01 09:00:00 22.9 18 Nordeste 33 Nordeste 0 -- -- 72
2017-08-01 08:00:00 22.2 17 Nordeste 31 Nordeste 0 -- -- 78
2017-08-01 07:00:00 21.8 18 Nordeste 31 Nordeste 0 -- -- 80
2017-08-01 06:00:00 22 17 Nordeste 31 Nordeste 0 -- -- 78
2017-08-01 05:00:00 22.5 14 Este 30 Nordeste 0 -- -- 70
2017-08-01 04:00:00 22.1 17 Nordeste 29 Nordeste 0 -- -- 76
2017-08-01 03:00:00 22.4 18 Nordeste 30 Norte 0 -- -- 76
2017-08-01 02:00:00 22.5 15 Nordeste 34 Nordeste 0 -- -- 71
2017-08-01 01:00:00 22.6 14 Nordeste 31 Este 0 -- -- 70
2017-08-01 00:00:00 22.5 20 Nordeste 33 Nordeste 0 -- -- 76
2017-07-31 23:00:00 22.6 17 Nordeste 34 Norte 0 -- -- 75
2017-07-31 22:00:00 22.7 16 Nordeste 36 Norte 0 -- -- 75
2017-07-31 21:00:00 23 19 Norte 35 Norte 0 -- -- 71
2017-07-31 20:00:00 23.8 25 Nordeste 40 Norte 0 -- -- 67
2017-07-31 19:00:00 24.6 26 Norte 43 Nordeste 0 -- -- 61
2017-07-31 18:00:00 24.9 24 Norte 49 Norte 0 -- -- 61
2017-07-31 17:00:00 24.9 32 Norte 49 Norte 0 -- -- 60
2017-07-31 16:00:00 25.3 27 Norte 44 Nordeste 0 -- -- 57
2017-07-31 15:00:00 24.5 26 Nordeste 41 Nordeste 0 -- -- 59
2017-07-31 14:00:00 24.2 22 Nordeste 44 Nordeste 0 -- -- 62
2017-07-31 13:00:00 24.3 23 Nordeste 41 Nordeste 0 -- -- 61
2017-07-31 12:00:00 23.8 24 Nordeste 41 Norte 0 -- -- 61
2017-07-31 11:00:00 23.6 23 Nordeste 40 Nordeste 0 -- -- 64
2017-07-31 10:00:00 22.7 22 Nordeste 38 Nordeste 0 -- -- 64
2017-07-31 09:00:00 22.1 24 Nordeste 41 Nordeste 0 -- -- 67
2017-07-31 08:00:00 21.7 21 Nordeste 39 Nordeste 0 -- -- 70
2017-07-31 07:00:00 21.7 15 Nordeste 33 Nordeste 0 -- -- 69
2017-07-31 06:00:00 21.9 18 Nordeste 37 Nordeste 0 -- -- 69
2017-07-31 05:00:00 21.9 15 Nordeste 30 Nordeste 0 -- -- 69
2017-07-31 04:00:00 22 14 Nordeste 34 Nordeste 0 -- -- 70
2017-07-31 03:00:00 21.9 18 Nordeste 31 Nordeste 0 -- -- 71
2017-07-31 02:00:00 22 23 Nordeste 35 Nordeste 0 -- -- 70
2017-07-31 01:00:00 21.9 19 Nordeste 32 Nordeste 0 -- -- 73
2017-07-31 00:00:00 22 23 Nordeste 46 Nordeste 0 -- -- 73
2017-07-30 23:00:00 22.1 21 Nordeste 36 Nordeste 0 -- -- 74
2017-07-30 22:00:00 22.6 18 Nordeste 41 Norte 0 -- -- 71
2017-07-30 21:00:00 22.7 28 Norte 43 Norte 0 -- -- 71
2017-07-30 20:00:00 23.7 23 Nordeste 50 Nordeste 0 -- -- 67
2017-07-30 19:00:00 24.8 26 Norte 47 Nordeste 0 -- -- 64
2017-07-30 18:00:00 25 28 Norte 48 Nordeste 0 -- -- 63
2017-07-30 17:00:00 25.2 30 Norte 46 Norte 0 -- -- 64
2017-07-30 16:00:00 25.3 26 Norte 49 Norte 0 -- -- 64
2017-07-30 15:00:00 25.2 28 Norte 47 Norte 0 -- -- 66
2017-07-30 14:00:00 25.4 21 Norte 42 Norte 0 -- -- 65
2017-07-30 13:00:00 25.4 22 Norte 37 Norte 0 -- -- 64
2017-07-30 12:00:00 25 19 Norte 39 Este 0 -- -- 63
2017-07-30 11:00:00 24.8 11 Norte 38 Nordeste 0 -- -- 65
2017-07-30 10:00:00 23.7 16 Nordeste 42 Nordeste 0 -- -- 68
2017-07-30 09:00:00 22.5 19 Nordeste 38 Nordeste 0 -- -- 75
2017-07-30 08:00:00 21.9 17 Nordeste 36 Este 0 -- -- 77
2017-07-30 07:00:00 22.6 7 Oeste 18 Sur 0 -- -- 70
2017-07-30 06:00:00 22.9 9 Sur 23 Nordeste 0 -- -- 69
2017-07-30 05:00:00 23.3 10 Sur 26 Sudeste 0 -- -- 64
2017-07-30 04:00:00 23.1 5 Nordeste 28 Norte 0 -- -- 69
2017-07-30 03:00:00 23.2 6 Sur 30 Este 0 -- -- 73
2017-07-30 02:00:00 23.9 7 Norte 29 Nordeste 0 -- -- 61
2017-07-30 01:00:00 24.1 14 Nordeste 26 Nordeste 0 -- -- 62
2017-07-30 00:00:00 24.7 13 Nordeste 27 Nordeste 0 -- -- 60
2017-07-29 23:00:00 24 10 Nordeste 31 Norte 0 -- -- 69
2017-07-29 22:00:00 24.5 11 Norte 32 Norte 0 -- -- 72
2017-07-29 21:00:00 24.3 8 Noroeste 31 Norte 0 -- -- 73
2017-07-29 20:00:00 25.3 22 Norte 36 Norte 0 -- -- 70
2017-07-29 19:00:00 26.5 17 Norte 41 Norte 0 -- -- 69
2017-07-29 18:00:00 26.9 22 Norte 38 Norte 0 -- -- 68
2017-07-29 17:00:00 28.5 9 Nordeste 23 Norte 0 -- -- 64
2017-07-29 16:00:00 27.1 10 Norte 30 Norte 0 -- -- 67
2017-07-29 15:00:00 27.2 11 Norte 27 Norte 0 -- -- 67
2017-07-29 14:00:00 26.9 9 Sur 16 Sur 0 -- -- 71
2017-07-29 13:00:00 26.7 8 Sudeste 21 Norte 0 -- -- 71
2017-07-29 12:00:00 26.4 7 Este 24 Nordeste 0 -- -- 69
2017-07-29 11:00:00 25.8 6 Sudeste 17 Sudeste 0 -- -- 67
2017-07-29 10:00:00 25.9 5 Nordeste 17 Noroeste 0 -- -- 65
2017-07-29 09:00:00 25.4 10 Nordeste 27 Norte 0 -- -- 58
2017-07-29 08:00:00 24.3 10 Sudoeste 29 Sudeste 0 -- -- 59
2017-07-29 07:00:00 23.8 8 Sur 15 Sur 0 -- -- 53
2017-07-29 06:00:00 24.4 10 Sudoeste 20 Sur 0 -- -- 62
2017-07-29 05:00:00 23.8 10 Sur 16 Sur 0 -- -- 70
2017-07-29 04:00:00 23.8 10 Sur 17 Sur 0 -- -- 71
2017-07-29 03:00:00 23.5 7 Sur 21 Sur 0 -- -- 76
2017-07-29 02:00:00 23.7 15 Sur 19 Sur 0 -- -- 75
2017-07-29 01:00:00 23.9 11 Sur 15 Sur 0 -- -- 75
2017-07-29 00:00:00 23.8 9 Sur 16 Sudeste 0 -- -- 76
2017-07-28 23:00:00 23.9 12 Sudeste 29 Sur 0 -- -- 77
2017-07-28 22:00:00 26.4 10 Sur 27 Sur 0 -- -- 55
2017-07-28 21:00:00 26.2 8 Sudeste 23 Sudeste 0 -- -- 61
2017-07-28 20:00:00 28.5 6 Oeste 26 Sudeste 0 -- -- 54
2017-07-28 19:00:00 28.8 14 Sur 26 Sur 0 -- -- 56
2017-07-28 18:00:00 26.5 9 Sudeste 18 Sur 0 -- -- 71
2017-07-28 17:00:00 26 15 Sudeste 22 Sudeste 0 -- -- 73
2017-07-28 16:00:00 27.1 12 Sur 21 Sur 0 -- -- 70
2017-07-28 15:00:00 27.3 12 Sur 18 Noroeste 0 -- -- 68
2017-07-28 14:00:00 25.5 17 Norte 28 Norte 0 -- -- 74
2017-07-28 13:00:00 26.9 10 Nordeste 17 Norte 0 -- -- 64
2017-07-28 12:00:00 28.7 2 Oeste 9 Sur 0 -- -- 50
2017-07-28 11:00:00 29.3 6 Sur 10 Sur 0 -- -- 46
2017-07-28 10:00:00 30 5 Sur -- -- -- -- -- 42
2017-07-28 09:00:00 29.3 2 Sudeste 14 Sur 0 -- -- 43
2017-07-28 08:00:00 27.3 10 Sudeste 28 Sudeste 0 -- -- 47
2017-07-28 07:00:00 31.9 19 Nordeste 44 Nordeste 0 -- -- 26
2017-07-28 06:00:00 33.2 24 Nordeste 40 Nordeste 0 -- -- 14
2017-07-28 05:00:00 31.8 20 Nordeste 52 Norte 0 -- -- 18
2017-07-28 04:00:00 31.6 26 Nordeste 45 Nordeste 0 -- -- 19
2017-07-28 03:00:00 31.5 25 Nordeste 49 Nordeste 0 -- -- 19
2017-07-28 02:00:00 31.7 29 Nordeste 45 Este 0 -- -- 19
2017-07-28 01:00:00 31.6 21 Nordeste 37 Este 0 -- -- 22
2017-07-28 00:00:00 24.4 10 Sudoeste 20 Sudoeste 0 -- -- 70
2017-07-27 23:00:00 25.6 9 Sudoeste 22 Este 0 -- -- 57
2017-07-27 22:00:00 25.6 13 Sudeste 39 Este 0 -- -- 62
2017-07-27 21:00:00 24.4 22 Este 39 Este 0 -- -- 73
2017-07-27 20:00:00 25.9 15 Este 43 Norte 0 -- -- 67
2017-07-27 19:00:00 26.4 14 Norte 44 Nordeste 0 -- -- 66
2017-07-27 18:00:00 26.6 14 Nordeste 32 Noroeste 0 -- -- 67
2017-07-27 17:00:00 27 11 Norte 44 Norte 0 -- -- 67
2017-07-27 16:00:00 25.1 23 Norte 39 Norte 0 -- -- 74
2017-07-27 15:00:00 26.6 10 Norte 31 Nordeste 0 -- -- 66
2017-07-27 14:00:00 27.8 10 Nordeste 39 Norte 0 -- -- 60
2017-07-27 13:00:00 25.9 12 Norte 44 Noroeste 0 -- -- 67
2017-07-27 12:00:00 24.4 29 Norte 49 Norte 0 -- -- 73
2017-07-27 11:00:00 26.1 9 Sudoeste 21 Sudoeste 0 -- -- 62
2017-07-27 10:00:00 24.6 9 Sur 42 Noroeste 0 -- -- 69
2017-07-27 09:00:00 23.2 16 Norte 35 Norte 0 -- -- 73
2017-07-27 08:00:00 22.6 13 Sudeste 29 Sudeste 0 -- -- 72
2017-07-27 07:00:00 22.1 14 Este 32 Este 0 -- -- 75
2017-07-27 06:00:00 22.1 8 Nordeste 32 Nordeste 0 -- -- 75
2017-07-27 05:00:00 22.1 8 Este 41 Nordeste 0 -- -- 75
2017-07-27 04:00:00 22.2 11 Nordeste 35 Nordeste 0 -- -- 74
2017-07-27 03:00:00 22.2 8 Nordeste 43 Norte 0 -- -- 74
2017-07-27 02:00:00 22.5 13 Nordeste 38 Norte 0 -- -- 76
2017-07-27 01:00:00 22.3 17 Nordeste 47 Norte 0 -- -- 76
2017-07-27 00:00:00 22.3 27 Norte 48 Norte 0 -- -- 76
2017-07-26 23:00:00 22.7 29 Nordeste 47 Nordeste 0 -- -- 73
2017-07-26 22:00:00 22.7 19 Nordeste 34 Nordeste 0 -- -- 74
2017-07-26 21:00:00 22.7 22 Nordeste 38 Norte 0 -- -- 75
2017-07-26 20:00:00 23.4 20 Norte 43 Nordeste 0 -- -- 73
2017-07-26 19:00:00 24.1 27 Nordeste 43 Nordeste 0 -- -- 70
2017-07-26 18:00:00 24.7 24 Nordeste 45 Nordeste 0 -- -- 69
2017-07-26 17:00:00 24.9 26 Nordeste 44 Nordeste 0 -- -- 67
2017-07-26 16:00:00 25.1 27 Norte 44 Norte 0 -- -- 67
2017-07-26 15:00:00 25.4 26 Norte 45 Norte 0 -- -- 66
2017-07-26 14:00:00 24.8 28 Norte 45 Norte 0 -- -- 69
2017-07-26 13:00:00 26 14 Nordeste 33 Norte 0 -- -- 62
2017-07-26 12:00:00 25.5 11 Norte 32 Norte 0 -- -- 65
2017-07-26 11:00:00 24.3 19 Norte 42 Nordeste 0 -- -- 68
2017-07-26 10:00:00 23.7 17 Nordeste 41 Nordeste 0 -- -- 71
2017-07-26 09:00:00 22.4 20 Nordeste 46 Norte 0 -- -- 74
2017-07-26 08:00:00 21.8 23 Nordeste 51 Nordeste 0 -- -- 77
2017-07-26 07:00:00 21.6 26 Nordeste 52 Nordeste 0 -- -- 78
2017-07-26 06:00:00 21.7 31 Nordeste 59 Nordeste 0 -- -- 79
2017-07-26 05:00:00 21.8 29 Norte 57 Norte 0 -- -- 80
2017-07-26 04:00:00 21.9 33 Norte 76 Norte 0 -- -- 78
2017-07-26 03:00:00 22.2 35 Norte 57 Nordeste 0 -- -- 77
2017-07-26 02:00:00 22.2 33 Norte 50 Norte 0 -- -- 78
2017-07-26 01:00:00 22.4 35 Nordeste 55 Nordeste 0 -- -- 77
2017-07-26 00:00:00 22.5 35 Nordeste 56 Nordeste 0 -- -- 78
2017-07-25 23:00:00 22.6 36 Nordeste 51 Norte 0 -- -- 78
2017-07-25 22:00:00 22.8 32 Norte 54 Norte 0 -- -- 76
2017-07-25 21:00:00 23 32 Norte 56 Norte 0 -- -- 76
2017-07-25 20:00:00 23.5 35 Norte 58 Norte 0 -- -- 74
2017-07-25 19:00:00 24.4 31 Norte 50 Norte 0 -- -- 71
2017-07-25 18:00:00 25.3 25 Norte 44 Norte 0 -- -- 68
2017-07-25 17:00:00 25.6 27 Norte 60 Nordeste 0 -- -- 66
2017-07-25 16:00:00 26.5 27 Nordeste 54 Norte 0 -- -- 62
2017-07-25 15:00:00 26.1 28 Norte 52 Norte 0 -- -- 64
2017-07-25 14:00:00 26.4 23 Nordeste 51 Nordeste 0 -- -- 63
2017-07-25 13:00:00 25 32 Norte 58 Norte 0 -- -- 66
2017-07-25 12:00:00 24.7 29 Nordeste 52 Norte 0 -- -- 68
2017-07-25 11:00:00 23.7 28 Norte 52 Norte 0 -- -- 73
2017-07-25 10:00:00 23.3 30 Norte 49 Nordeste 0 -- -- 73
2017-07-25 09:00:00 22.6 23 Nordeste 46 Nordeste 0 -- -- 77
2017-07-25 08:00:00 22 24 Nordeste 49 Nordeste 0 -- -- 79
2017-07-25 07:00:00 21.8 24 Nordeste 48 Nordeste 0 -- -- 80
2017-07-25 06:00:00 22 24 Nordeste 54 Nordeste 0 -- -- 80
2017-07-25 05:00:00 22.1 27 Nordeste 50 Norte 0 -- -- 78
2017-07-25 04:00:00 22 28 Norte 58 Norte 0 -- -- 80
2017-07-25 03:00:00 22.1 33 Norte 59 Nordeste 0 -- -- 81
2017-07-25 02:00:00 22.3 33 Norte 56 Nordeste 0 -- -- 79
2017-07-25 01:00:00 22.5 31 Norte 53 Norte 0 -- -- 78
2017-07-25 00:00:00 22.5 37 Norte 49 Norte 0 -- -- 79
2017-07-24 23:00:00 22.8 35 Norte 52 Norte 0 -- -- 77
2017-07-24 22:00:00 22.8 32 Norte 47 Nordeste 0 -- -- 77
2017-07-24 21:00:00 23 28 Norte 44 Norte 0 -- -- 76
2017-07-24 20:00:00 23.4 28 Nordeste 45 Nordeste 0 -- -- 74
2017-07-24 19:00:00 24 30 Norte 46 Norte 0 -- -- 71
2017-07-24 18:00:00 24.2 29 Norte 47 Nordeste 0 -- -- 71
2017-07-24 17:00:00 24.7 28 Norte 57 Norte 0 -- -- 69
2017-07-24 16:00:00 24.5 32 Norte 53 Norte 0 -- -- 71
2017-07-24 15:00:00 24.6 35 Norte 55 Norte 0 -- -- 69
2017-07-24 14:00:00 24.8 31 Norte 49 Nordeste 0 -- -- 68
2017-07-24 13:00:00 24.6 24 Nordeste 49 Nordeste 0 -- -- 69
2017-07-24 12:00:00 23.7 24 Nordeste 46 Nordeste 0 -- -- 71
2017-07-24 11:00:00 23.1 25 Nordeste 49 Nordeste 0 -- -- 74
2017-07-24 10:00:00 22.9 24 Nordeste 45 Nordeste 0 -- -- 74
2017-07-24 09:00:00 22.1 26 Nordeste 46 Nordeste 0 -- -- 75
2017-07-24 08:00:00 21.8 28 Nordeste 44 Nordeste 0 -- -- 77
2017-07-24 07:00:00 21.6 24 Nordeste 44 Norte 0 -- -- 76
2017-07-24 06:00:00 21.8 27 Nordeste 45 Nordeste 0 -- -- 76
2017-07-24 05:00:00 21.6 27 Nordeste 51 Norte 0 -- -- 75
2017-07-24 04:00:00 21.8 30 Norte 48 Norte 0 -- -- 73
2017-07-24 03:00:00 22 28 Norte 45 Norte 0 -- -- 70
2017-07-24 02:00:00 22.3 25 Nordeste 47 Norte 0 -- -- 70
2017-07-24 01:00:00 22.4 23 Nordeste 50 Nordeste 0 -- -- 75
2017-07-24 00:00:00 22.4 24 Nordeste 45 Nordeste 0 -- -- 72
2017-07-23 23:00:00 22.4 25 Nordeste 50 Este 0 -- -- 75
2017-07-23 22:00:00 22.5 22 Nordeste 48 Nordeste 0 -- -- 75
2017-07-23 21:00:00 22.7 26 Nordeste 46 Nordeste 0 -- -- 74
2017-07-23 20:00:00 23.2 24 Nordeste 46 Nordeste 0 -- -- 69
2017-07-23 19:00:00 24.2 27 Nordeste 45 Nordeste 0 -- -- 63
2017-07-23 18:00:00 24 28 Nordeste 48 Nordeste 0 -- -- 70
2017-07-23 17:00:00 24.5 28 Nordeste 50 Nordeste 0 -- -- 64
2017-07-23 16:00:00 24.9 29 Nordeste 54 Nordeste 0 -- -- 60
2017-07-23 15:00:00 24.8 32 Nordeste 53 Nordeste 0 -- -- 60
2017-07-23 14:00:00 24.4 32 Nordeste 51 Nordeste 0 -- -- 63
2017-07-23 13:00:00 24.5 28 Nordeste 45 Nordeste 0 -- -- 60
2017-07-23 12:00:00 24.1 27 Nordeste 45 Nordeste 0 -- -- 61
2017-07-23 11:00:00 23.1 26 Nordeste 47 Nordeste 0 -- -- 66
2017-07-23 10:00:00 23.9 19 Nordeste 42 Nordeste 0 -- -- 59
2017-07-23 09:00:00 21.9 20 Nordeste 37 Nordeste 0 -- -- 71
2017-07-23 08:00:00 21.5 21 Nordeste 36 Nordeste 0 -- -- 74
2017-07-23 07:00:00 21.7 22 Nordeste 39 Nordeste 0 -- -- 72
2017-07-23 06:00:00 21.5 17 Nordeste 38 Nordeste 0 -- -- 72
2017-07-23 05:00:00 21.6 19 Nordeste 44 Este 0 -- -- 70
2017-07-23 04:00:00 21.7 20 Nordeste 42 Nordeste 0 -- -- 68
2017-07-23 03:00:00 21.6 25 Nordeste 42 Nordeste 0 -- -- 72
2017-07-23 02:00:00 21.8 24 Nordeste 43 Nordeste 0 -- -- 71
2017-07-23 01:00:00 21.8 21 Nordeste 39 Nordeste 0 -- -- 72
2017-07-23 00:00:00 21.9 24 Nordeste 41 Nordeste 0 -- -- 72